NICK1: Arkansas River nr Nickerson, KS

Data processed at Wed May 22 2019 23:50


All information presented herein is the property of the government of the United States of America and may be revised or deleted at any time without prior notice.
Dissemination of this information without the expressed written consent of the Public Affairs Office, Tulsa District U.S. Army Corps of Engineers is strictly prohibited.
These data are gathered electronically and, as presented, have not undergone any form of quality control. These data are not guaranteed to be valid or correct.
Go to home page.
Go to station list.
Go to home page.

Upstream stations:

Downstream station:
Previous Day
Next Day
Current Day
    
SHEF ID:       NICK1     ARKANSAS R NR NICKERSON, KS
STATION TYPE:  

               PRECIP     STAGE  STAGE(2)  RIV-FLOW   CONDUCT  BAT-LOAD
                   in        ft        ft       cfs   umho/cm      volt
              Ccp-Rev   Ccp-Rev   Ccp-Rev   Ccp-Rev   Ccp-Rev   Ccp-Rev
(US/Central)
05/22 00:00      0.00     15.86      ----      2083    209606     12.81
05/22 01:00      0.00     15.90      ----      2102    209644     12.73
05/22 02:00      0.00     15.94      ----      2121    211484     12.73
05/22 03:00      0.00     16.01      ----      2155    211381     12.65
05/22 04:00      0.00     16.05      ----      2174    209907     12.65
05/22 05:00      0.00     16.09      ----      2194    212670     12.65
05/22 06:00      0.00     16.12      ----      2209    212216     12.65
05/22 07:00      0.00     16.17      ----      2237    211010     12.65
05/22 08:00      0.00     16.20      ----      2256    211228     12.65
05/22 09:00      0.00     16.25      ----      2294    209023     12.65
05/22 10:00      0.00     16.28      ----      2323    210298     12.65
05/22 11:00      0.00     16.32      ----      2368    209313     12.65
05/22 12:00      0.00     16.35      ----      2403    209338     13.37
05/22 13:00      0.00     16.39      ----      2449     21017     13.44
05/22 14:00      0.00     16.43      ----      2496    211612     13.37
05/22 15:00      0.00     16.47      ----      2544    210071     12.97
05/22 16:00      0.00     16.52      ----      2605    210451     13.37
05/22 17:00      0.00     16.58      ----      2680    212245     13.37
05/22 18:00      0.00     16.63      ----      2743    211921     13.29
05/22 19:00      0.00     16.67      ----      2795    210310     13.29
05/22 20:00      0.00     16.76      ----      2913    210121     13.13
05/22 21:00      0.00     16.82      ----      2994    210488     12.97
05/22 22:00      0.00     16.87      ----      3063    211651     12.89
05/22 23:00      0.00     16.93      ----      3119    213005     12.89